createdAt,value
2022-08-28T00:00:59.822Z,16.21
2022-08-28T00:03:26.638Z,16.19
2022-08-28T00:05:53.755Z,16.16
2022-08-28T00:08:21.298Z,16.14
2022-08-28T00:10:48.531Z,16.13
2022-08-28T00:13:19.086Z,16.12
2022-08-28T00:15:48.586Z,16.08
2022-08-28T00:18:16.139Z,16.10
2022-08-28T00:20:46.592Z,16.09
2022-08-28T00:23:14.134Z,16.11
2022-08-28T00:25:41.169Z,16.12
2022-08-28T00:28:10.423Z,16.11
2022-08-28T00:30:37.379Z,16.12
2022-08-28T00:33:15.590Z,16.15
2022-08-28T00:36:03.934Z,16.13
2022-08-28T00:38:50.987Z,16.10
2022-08-28T00:41:41.253Z,16.11
2022-08-28T00:44:29.161Z,16.13
2022-08-28T00:47:16.231Z,16.18
2022-08-28T00:50:04.756Z,16.22
2022-08-28T00:53:00.163Z,16.23
2022-08-28T00:55:47.843Z,16.22
2022-08-28T00:58:35.149Z,16.24
2022-08-28T01:01:22.355Z,16.24
2022-08-28T01:04:12.558Z,16.23
2022-08-28T01:07:02.557Z,16.22
2022-08-28T01:09:52.660Z,16.20
2022-08-28T01:12:39.902Z,16.18
2022-08-28T01:15:31.718Z,16.17
2022-08-28T01:18:21.429Z,16.15
2022-08-28T01:21:26.838Z,16.17
2022-08-28T01:28:25.021Z,16.13
2022-08-28T01:31:14.053Z,16.12
2022-08-28T01:34:01.629Z,16.10
2022-08-28T01:36:48.794Z,16.10
2022-08-28T01:39:22.478Z,16.09
2022-08-28T01:45:54.549Z,16.00
2022-08-28T01:48:43.643Z,15.99
2022-08-28T01:51:33.007Z,15.97
2022-08-28T01:54:22.361Z,15.95
2022-08-28T01:57:09.554Z,15.92
2022-08-28T01:59:56.759Z,15.89
2022-08-28T02:02:44.116Z,15.85
2022-08-28T02:05:32.736Z,15.82
2022-08-28T02:08:20.541Z,15.78
2022-08-28T02:11:08.955Z,15.74
2022-08-28T02:13:56.445Z,15.73
2022-08-28T02:16:43.560Z,15.69
2022-08-28T02:19:32.318Z,15.64
2022-08-28T02:22:19.344Z,15.60
2022-08-28T02:25:08.194Z,15.55
2022-08-28T02:32:06.326Z,15.51
2022-08-28T02:34:54.555Z,15.49
2022-08-28T02:37:43.013Z,15.46
2022-08-28T02:40:30.191Z,15.43
2022-08-28T02:43:17.494Z,15.42
2022-08-28T02:46:05.784Z,15.42
2022-08-28T02:48:52.874Z,15.40
2022-08-28T02:51:39.932Z,15.39
2022-08-28T02:54:26.976Z,15.39
2022-08-28T02:57:14.372Z,15.37
2022-08-28T03:00:02.951Z,15.35
2022-08-28T04:59:30.532Z,15.15
2022-08-28T05:02:20.696Z,15.14
2022-08-28T05:05:08.275Z,15.15
2022-08-28T05:07:55.350Z,15.15
2022-08-28T05:10:43.191Z,15.14
2022-08-28T05:13:30.250Z,15.18
2022-08-28T05:16:18.157Z,15.18
2022-08-28T05:19:05.351Z,15.15
2022-08-28T05:21:53.510Z,15.16
2022-08-28T05:24:40.618Z,15.15
2022-08-28T05:27:29.286Z,15.19
2022-08-28T05:30:16.496Z,15.18
2022-08-28T05:33:05.128Z,15.18
2022-08-28T05:35:52.174Z,15.17
2022-08-28T05:38:40.199Z,15.19
2022-08-28T05:41:30.273Z,15.17
2022-08-28T05:44:18.286Z,15.18
2022-08-28T05:47:05.420Z,15.18
2022-08-28T05:49:52.569Z,15.20
2022-08-28T05:52:40.521Z,15.23
2022-08-28T05:55:27.587Z,15.27
2022-08-28T05:58:29.539Z,15.29
2022-08-28T06:01:19.800Z,15.28
2022-08-28T06:04:19.313Z,15.31
2022-08-28T06:07:06.655Z,15.33
2022-08-28T06:09:53.711Z,15.37
2022-08-28T06:12:40.783Z,15.39
2022-08-28T06:15:28.089Z,15.42
2022-08-28T06:17:55.840Z,15.45
2022-08-28T06:20:23.301Z,15.46
2022-08-28T06:22:50.891Z,15.48
2022-08-28T06:25:17.656Z,15.52
2022-08-28T06:27:44.408Z,15.56
2022-08-28T06:30:11.470Z,15.59
2022-08-28T06:32:38.515Z,15.62
2022-08-28T06:35:05.787Z,15.64
2022-08-28T06:37:32.571Z,15.64
2022-08-28T06:39:59.392Z,15.66
2022-08-28T06:42:28.342Z,15.67
2022-08-28T06:44:55.101Z,15.70
2022-08-28T06:47:22.946Z,15.70
2022-08-28T06:49:49.698Z,15.71
2022-08-28T06:52:16.403Z,15.74
2022-08-28T06:54:45.629Z,15.77
2022-08-28T06:57:23.039Z,15.78
2022-08-28T07:03:45.667Z,15.86
2022-08-28T07:06:14.284Z,15.91
2022-08-28T07:08:42.583Z,15.96
2022-08-28T07:11:28.852Z,15.99
2022-08-28T07:13:57.323Z,16.03
2022-08-28T07:16:28.170Z,16.05
2022-08-28T07:18:55.599Z,16.05
2022-08-28T07:21:22.648Z,16.12
2022-08-28T07:23:50.297Z,16.18
2022-08-28T07:26:22.626Z,16.22
2022-08-28T07:28:50.643Z,16.27
2022-08-28T07:31:20.714Z,16.27
2022-08-28T07:33:53.987Z,16.25
2022-08-28T07:36:29.407Z,16.28
2022-08-28T07:38:58.974Z,16.30
2022-08-28T07:45:30.116Z,16.43
2022-08-28T07:47:57.713Z,16.53
2022-08-28T07:50:24.542Z,16.66
2022-08-28T07:52:51.271Z,16.79
2022-08-28T07:55:18.111Z,16.90
2022-08-28T08:06:34.899Z,17.01
2022-08-28T08:09:06.305Z,17.00
2022-08-28T08:11:34.043Z,17.00
2022-08-28T08:14:06.161Z,16.99
2022-08-28T08:16:39.346Z,17.01
2022-08-28T08:19:09.996Z,17.02
2022-08-28T08:25:59.453Z,17.17
2022-08-28T08:37:08.663Z,17.73
2022-08-28T08:39:55.745Z,17.93
2022-08-28T08:42:48.019Z,18.10
2022-08-28T08:53:48.043Z,18.18
2022-08-28T08:56:35.312Z,18.24
2022-08-28T08:59:26.190Z,18.31
2022-08-28T09:02:22.364Z,18.32
2022-08-28T09:05:27.723Z,18.16
2022-08-28T09:08:26.307Z,18.12
2022-08-28T09:11:18.048Z,18.10
2022-08-28T09:14:06.047Z,18.10
2022-08-28T09:16:39.892Z,18.16
2022-08-28T09:19:27.258Z,18.22
2022-08-28T09:22:13.452Z,18.26
2022-08-28T09:24:41.382Z,18.36
2022-08-28T09:27:29.997Z,18.45
2022-08-28T09:38:41.658Z,18.80
2022-08-28T09:45:39.364Z,18.93
2022-08-28T09:48:27.892Z,19.00
2022-08-28T09:51:03.868Z,19.14
2022-08-28T09:57:21.194Z,19.31
2022-08-28T09:59:48.127Z,19.40
2022-08-28T10:02:38.595Z,19.47
2022-08-28T10:09:39.534Z,19.54
2022-08-28T10:12:59.645Z,19.67
2022-08-28T10:16:05.113Z,19.83
2022-08-28T10:19:05.138Z,19.89
2022-08-28T10:33:35.261Z,19.84
2022-08-28T10:36:34.212Z,19.79
2022-08-28T10:39:45.821Z,19.77
2022-08-28T10:42:40.953Z,19.68
2022-08-28T10:45:20.900Z,19.61
2022-08-28T10:47:53.324Z,19.50
2022-08-28T10:50:53.171Z,19.42
2022-08-28T10:53:54.405Z,19.42
2022-08-28T10:56:46.639Z,19.40
2022-08-28T11:03:33.840Z,19.33
2022-08-28T11:09:52.026Z,19.36
2022-08-28T11:16:38.245Z,19.42
2022-08-28T11:24:02.915Z,19.46
2022-08-28T11:30:43.011Z,19.45
2022-08-28T11:33:40.891Z,19.50
2022-08-28T11:36:50.394Z,19.54
2022-08-28T11:43:23.864Z,19.48
2022-08-28T11:45:53.515Z,19.47
2022-08-28T12:00:46.418Z,19.60
2022-08-28T12:03:31.507Z,19.68
2022-08-28T12:06:00.382Z,19.75
2022-08-28T12:20:51.166Z,19.91
2022-08-28T12:27:39.747Z,19.96
2022-08-28T12:31:14.135Z,19.95
2022-08-28T12:34:01.024Z,20.02
2022-08-28T12:36:54.983Z,20.14
2022-08-28T12:39:23.085Z,20.16
2022-08-28T12:53:47.626Z,20.08
2022-08-28T12:56:17.865Z,19.99
2022-08-28T12:58:46.206Z,19.94
2022-08-28T13:01:30.603Z,19.93
2022-08-28T13:08:50.054Z,19.86
2022-08-28T13:11:38.822Z,19.78
2022-08-28T13:14:06.535Z,19.75
2022-08-28T13:24:33.280Z,19.52
2022-08-28T13:27:08.886Z,19.54
2022-08-28T13:30:06.083Z,19.58
2022-08-28T13:32:36.840Z,19.61
2022-08-28T13:38:52.622Z,19.54
2022-08-28T13:41:29.882Z,19.38
2022-08-28T13:48:09.168Z,19.23
2022-08-28T13:50:37.819Z,19.25
2022-08-28T13:54:08.237Z,19.25
2022-08-28T13:57:11.453Z,19.26
2022-08-28T13:59:59.448Z,19.25
2022-08-28T14:02:45.481Z,19.20
2022-08-28T14:05:12.612Z,19.17
2022-08-28T14:08:29.695Z,19.15
2022-08-28T14:19:04.004Z,19.09
2022-08-28T14:25:47.682Z,19.05
2022-08-28T14:28:16.405Z,19.03
2022-08-28T14:34:26.655Z,19.06
2022-08-28T14:36:55.476Z,19.05
2022-08-28T14:39:25.725Z,19.05
2022-08-28T14:41:54.020Z,19.09
2022-08-28T14:44:22.961Z,19.12
2022-08-28T14:46:50.517Z,19.13
2022-08-28T14:49:19.137Z,19.14
2022-08-28T14:51:46.965Z,19.13
2022-08-28T14:54:16.022Z,19.17
2022-08-28T14:56:44.577Z,19.24
2022-08-28T14:59:18.514Z,19.33
2022-08-28T15:01:48.490Z,19.37
2022-08-28T15:04:19.631Z,19.41
2022-08-28T15:10:42.113Z,19.61
2022-08-28T15:17:00.073Z,19.73
2022-08-28T15:24:02.349Z,19.84
2022-08-28T15:26:31.856Z,19.84
2022-08-28T15:36:31.210Z,19.66
2022-08-28T15:39:18.172Z,19.69
2022-08-28T15:46:28.707Z,19.75
2022-08-28T15:48:55.850Z,19.77
2022-08-28T15:51:26.002Z,19.80
2022-08-28T16:02:02.198Z,19.51
2022-08-28T16:05:13.406Z,19.42
2022-08-28T16:07:40.182Z,19.35
2022-08-28T16:11:06.600Z,19.32
2022-08-28T16:13:34.197Z,19.34
2022-08-28T16:16:01.954Z,19.36
2022-08-28T16:18:28.825Z,19.32
2022-08-28T16:24:46.242Z,19.24
2022-08-28T16:27:15.636Z,19.25
2022-08-28T16:37:53.595Z,19.13
2022-08-28T16:44:50.265Z,18.96
2022-08-28T16:47:17.018Z,18.97
2022-08-28T16:53:35.045Z,18.99
2022-08-28T16:56:02.364Z,19.02
2022-08-28T16:58:29.775Z,19.00
2022-08-28T17:00:56.755Z,18.98
2022-08-28T17:03:26.589Z,18.97
2022-08-28T17:05:55.209Z,18.97
2022-08-28T17:08:21.998Z,18.95
2022-08-28T17:10:48.856Z,18.94
2022-08-28T17:13:16.220Z,18.94
2022-08-28T17:19:33.969Z,18.92
2022-08-28T17:22:19.457Z,18.91
2022-08-28T17:24:47.144Z,18.90
2022-08-28T17:34:57.719Z,18.86
2022-08-28T17:37:25.059Z,18.85
2022-08-28T17:39:53.651Z,18.82
2022-08-28T17:42:20.848Z,18.75
2022-08-28T17:44:47.583Z,18.67
2022-08-28T17:47:14.483Z,18.59
2022-08-28T17:49:41.416Z,18.54
2022-08-28T17:52:08.233Z,18.51
2022-08-28T17:54:35.066Z,18.53
2022-08-28T18:00:57.808Z,18.47
2022-08-28T18:03:24.441Z,18.43
2022-08-28T18:05:51.515Z,18.42
2022-08-28T18:08:18.447Z,18.42
2022-08-28T18:10:45.303Z,18.43
2022-08-28T18:13:12.830Z,18.44
2022-08-28T18:16:00.766Z,18.42
2022-08-28T18:22:58.976Z,18.33
2022-08-28T18:25:50.576Z,18.30
2022-08-28T18:28:38.534Z,18.22
2022-08-28T18:35:06.960Z,18.05
2022-08-28T18:37:33.679Z,17.98
2022-08-28T18:40:00.599Z,17.95
2022-08-28T18:42:28.490Z,17.92
2022-08-28T18:44:55.235Z,17.90
2022-08-28T18:51:06.599Z,17.77
2022-08-28T18:57:23.858Z,17.69
2022-08-28T18:59:53.484Z,17.70
2022-08-28T19:02:20.390Z,17.67
2022-08-28T19:04:47.317Z,17.65
2022-08-28T19:07:34.414Z,17.59
2022-08-28T19:10:33.431Z,17.54
2022-08-28T19:13:21.363Z,17.49
2022-08-28T19:16:09.081Z,17.48
2022-08-28T19:18:56.226Z,17.45
2022-08-28T19:21:44.655Z,17.44
2022-08-28T19:28:33.933Z,17.30
2022-08-28T19:35:24.337Z,17.25
2022-08-28T19:38:11.826Z,17.26
2022-08-28T19:40:59.062Z,17.25
2022-08-28T19:43:46.118Z,17.24
2022-08-28T19:46:36.317Z,17.22
2022-08-28T19:49:23.935Z,17.19
2022-08-28T19:52:11.670Z,17.18
2022-08-28T19:54:58.913Z,17.19
2022-08-28T19:57:49.585Z,17.18
2022-08-28T20:04:47.987Z,17.13
2022-08-28T20:11:29.071Z,17.03
2022-08-28T20:14:05.118Z,17.02
2022-08-28T20:16:35.464Z,17.03
2022-08-28T20:19:04.376Z,17.01
2022-08-28T20:25:50.478Z,16.96
2022-08-28T20:28:38.064Z,16.91
2022-08-28T20:31:26.278Z,16.85
2022-08-28T20:34:16.608Z,16.84
2022-08-28T20:37:04.330Z,16.83
2022-08-28T20:43:52.164Z,16.81
2022-08-28T20:46:42.165Z,16.79
2022-08-28T20:49:29.412Z,16.76
2022-08-28T20:52:16.767Z,16.73
2022-08-28T20:59:14.731Z,16.69
2022-08-28T21:02:01.917Z,16.69
2022-08-28T21:04:49.883Z,16.68
2022-08-28T21:07:37.211Z,16.66
2022-08-28T21:14:35.716Z,16.66
2022-08-28T21:17:28.927Z,16.62
2022-08-28T21:20:20.110Z,16.63
2022-08-28T21:23:07.185Z,16.62
2022-08-28T21:30:03.253Z,16.57
2022-08-28T21:32:32.751Z,16.57
2022-08-28T21:35:20.081Z,16.55
2022-08-28T21:42:17.919Z,16.51
2022-08-28T21:45:11.279Z,16.49
2022-08-28T21:52:01.294Z,16.43
2022-08-28T21:54:28.339Z,16.43
2022-08-28T21:56:58.731Z,16.43
2022-08-28T21:59:44.515Z,16.44
2022-08-28T22:02:11.360Z,16.44
2022-08-28T22:05:24.269Z,16.43
2022-08-28T22:08:13.076Z,16.43
2022-08-28T22:11:02.078Z,16.43
2022-08-28T22:13:59.685Z,16.43
2022-08-28T22:20:07.570Z,16.42
2022-08-28T22:22:52.934Z,16.41
2022-08-28T22:25:42.018Z,16.43
2022-08-28T22:28:29.172Z,16.41
2022-08-28T22:34:47.344Z,16.40
2022-08-28T22:37:14.163Z,16.43
2022-08-28T22:39:42.529Z,16.44
2022-08-28T22:42:10.295Z,16.47
2022-08-28T22:44:38.531Z,16.48
2022-08-28T22:47:06.151Z,16.48
2022-08-28T22:49:33.362Z,16.48
2022-08-28T22:52:02.924Z,16.45
2022-08-28T22:54:32.105Z,16.44
2022-08-28T22:56:58.853Z,16.44
2022-08-28T22:59:28.042Z,16.42
2022-08-28T23:01:55.027Z,16.40
2022-08-28T23:04:42.122Z,16.39
2022-08-28T23:07:29.160Z,16.40
2022-08-28T23:10:16.952Z,16.36
2022-08-28T23:13:03.976Z,16.35
2022-08-28T23:15:51.087Z,16.34
2022-08-28T23:19:06.677Z,16.32
2022-08-28T23:21:45.261Z,16.32
2022-08-28T23:24:32.286Z,16.32
2022-08-28T23:27:35.876Z,16.31
2022-08-28T23:30:24.415Z,16.32
2022-08-28T23:33:13.526Z,16.32
2022-08-28T23:36:00.580Z,16.30
2022-08-28T23:38:47.606Z,16.30
2022-08-28T23:41:34.732Z,16.30
2022-08-28T23:44:22.291Z,16.29
2022-08-28T23:47:09.320Z,16.27
2022-08-28T23:49:56.388Z,16.27
2022-08-28T23:52:44.285Z,16.23
2022-08-28T23:55:31.770Z,16.22
2022-08-28T23:58:20.764Z,16.21
